Latest Coastal Weather Observations for Groote Eylandt Airport

IDD60701

Issued at 1:01 pm CST Tuesday 4 August 2015 (issued every 10 minutes, with the page automatically refreshed every 10 minutes)

About coastal observations | Map of coastal stations | Coastal observations for NT | Marine services | Other Formats
Station Details ID: 014518 Name: GROOTE EYLANDT AIRPORT Lat: -13.97 Lon: 136.46 Height: 13.7 m
Data from the previous 72 hours. | See also: Recent months at Groote Eylandt Airport
Date/Time
CST
Temp

°C
Wind Pressure Rain
since 9am
mm
Weather Cloud Vis
km
Sea
Height
m
Swell
Dir
 
Speed
knots
Gust
knots
hPa Trend Height
m
Period
s
Dir
04/01:00pm 25.5 ESE 14 20 1016.8 - 0.0 - - - - - - -
04/12:30pm 26.1 ESE 11 24 1017.2 - 0.0 - - - - - - -
04/12:00pm 25.5 SE 13 24 1017.8 - 0.0 - - - - - - -
04/11:30am 26.2 SE 11 20 1017.9 - 0.0 - - - - - - -
04/11:00am 25.2 SSE 12 19 1018.3 - 0.0 - - - - - - -
04/10:30am 25.5 SSE 10 17 1018.2 - 0.0 - - - - - - -
04/10:00am 25.5 SSE 9 22 1018.2 - 0.0 - - - - - - -
04/09:30am 25.0 SE 11 18 1018.1 - 0.0 - - - - - - -
04/09:00am 24.8 SSE 9 13 1017.9 - 0.2 - - - - - - -
04/08:30am 23.8 SSE 8 14 1017.6 - 0.2 - - - - - - -
04/08:00am 22.3 SSE 6 10 1017.3 - 0.2 - - - - - - -
04/07:30am 20.8 SSE 5 11 1017.0 - 0.0 - - - - - - -
04/07:00am 20.0 SSE 5 9 1016.6 - 0.0 - - - - - - -
04/06:30am 20.1 SSE 5 8 1016.3 - 0.0 - - - - - - -
04/06:00am 20.0 SSE 4 6 1016.0 - 0.0 - - - - - - -
04/05:30am 20.2 SSE 4 6 1015.9 - 0.0 - - - - - - -
04/05:00am 20.3 SSE 4 7 1015.7 - 0.0 - - - - - - -
04/04:30am 20.2 SSE 4 7 1015.6 - 0.0 - - - - - - -
04/04:00am 20.1 SSE 3 6 1015.6 - 0.0 - - - - - - -
04/03:30am 19.3 SSE 3 5 1015.6 - 0.0 - Partly cloudy - - - - -
04/03:00am 18.4 SSE 2 3 1015.5 - 0.0 - - - - - - -
04/02:30am 18.4 S 5 8 1015.6 - 0.0 - - - - - - -
04/02:00am 17.7 WSW 4 6 1015.4 - 0.0 - Partly cloudy - - - - -
04/01:49am 16.3 S 2 5 1015.5 - 0.0 - Partly cloudy - - - - -
04/01:30am 16.3 CALM 0 3 1015.5 - 0.0 - Partly cloudy - - - - -
04/01:00am 17.1 ENE 3 4 1015.5 - 0.0 - Partly cloudy - - - - -
04/12:30am 17.6 ENE 1 4 1015.8 - 0.0 - - - - - - -
04/12:00am 18.2 CALM 0 0 1016.0 - 0.0 - - - - - - -
 
Date/Time
CST
Temp

°C
Wind Pressure Rain
since 9am
mm
Weather Cloud Vis
km
Sea
Height
m
Swell
Dir
 
Speed
knots
Gust
knots
hPa Trend Height
m
Period
s
Dir
03/11:30pm 18.8 CALM 0 0 1016.2 - 0.0 - - - - - - -
03/11:00pm 19.3 CALM 0 0 1016.4 - 0.0 - - - - - - -
03/10:30pm 19.7 CALM 0 0 1016.4 - 0.0 - - - - - - -
03/10:00pm 20.5 ENE 2 5 1016.6 - 0.0 - - - - - - -
03/09:30pm 20.9 E 3 3 1016.8 - 0.0 - - - - - - -
03/09:00pm 21.9 E 2 3 1016.8 - 0.0 - - - - - - -
03/08:30pm 22.4 SE 3 5 1016.7 - 0.0 - - - - - - -
03/08:00pm 23.0 SE 4 6 1016.4 - 0.0 - - - - - - -
03/07:30pm 23.7 SE 5 7 1016.1 - 0.0 - - - - - - -
03/07:00pm 24.4 SE 4 6 1015.7 - 0.0 - - - - - - -
03/06:30pm 25.3 ESE 4 6 1015.6 - 0.0 - - - - - - -
03/06:00pm 26.4 ESE 5 8 1015.4 - 0.0 - - - - - - -
03/05:30pm 27.2 SE 5 9 1015.4 - 0.0 - - - - - - -
03/05:00pm 27.9 E 8 13 1015.4 - 0.0 - Partly cloudy - - - - -
03/04:30pm 28.2 E 11 14 1015.1 - 0.0 - - - - - - -
03/04:00pm 28.7 ESE 9 14 1014.9 - 0.0 - Partly cloudy - - - - -
03/03:30pm 29.3 ESE 7 12 1014.8 - 0.0 - Partly cloudy - - - - -
03/03:00pm 29.6 ENE 9 18 1014.8 - 0.0 - Mostly cloudy - - - - -
03/02:30pm 30.2 E 9 15 1015.0 - 0.0 - - - - - - -
03/02:00pm 29.8 E 9 16 1015.4 - 0.0 - Partly cloudy - - - - -
03/01:30pm 30.3 E 10 16 1015.8 - 0.0 - Partly cloudy - - - - -
03/01:00pm 29.7 E 12 16 1016.2 - 0.0 - Partly cloudy - - - - -
03/12:30pm 29.2 E 10 17 1016.6 - 0.0 - Partly cloudy - - - - -
03/12:00pm 29.2 ESE 9 13 1017.0 - 0.0 - - - - - - -
03/11:30am 29.0 E 12 17 1017.4 - 0.0 - - - - - - -
03/11:00am 29.1 E 12 17 1017.5 - 0.0 - - - - - - -
03/10:30am 28.1 E 15 20 1017.7 - 0.0 - - - - - - -
03/10:00am 27.9 ESE 10 16 1017.5 - 0.0 - - - - - - -
03/09:30am 27.6 E 9 15 1017.4 - 0.0 - - - - - - -
03/09:00am 24.2 ENE 5 11 1017.5 - 0.0 - - - - - - -
03/08:30am 21.5 CALM 0 0 1016.7 - 0.0 - - - - - - -
03/08:00am 18.0 CALM 0 0 1016.5 - 0.0 - - - - - - -
03/07:30am 15.8 CALM 0 0 1016.4 - 0.0 - Partly cloudy - - - - -
03/07:00am 15.1 CALM 0 0 1016.2 - 0.0 - Partly cloudy - - - - -
03/06:52am 15.1 CALM 0 0 1016.1 - 0.0 - Partly cloudy - - - - -
03/06:30am 15.5 CALM 0 0 1015.9 - 0.0 - Cloudy - - - - -
03/06:00am 15.9 CALM 0 0 1015.8 - 0.0 - Cloudy - - - - -
03/05:30am 15.9 CALM 0 0 1015.7 - 0.0 - Cloudy - - - - -
03/05:00am 15.7 CALM 0 0 1015.8 - 0.0 - Cloudy - - - - -
03/04:30am 14.8 CALM 0 0 1015.6 - 0.0 - Cloudy - - - - -
03/04:24am 14.8 CALM 0 0 1015.6 - 0.0 - Partly cloudy - - - - -
03/04:05am 14.7 CALM 0 0 1015.5 - 0.0 - Partly cloudy - - - - -
03/04:00am 14.7 CALM 0 0 1015.5 - 0.0 - Partly cloudy - - - - -
03/03:30am 15.0 CALM 0 0 1015.5 - 0.0 - - - - - - -
03/03:00am 15.9 CALM 0 0 1015.6 - 0.0 - - - - - - -
03/02:30am 16.2 CALM 0 0 1015.7 - 0.0 - - - - - - -
03/02:00am 16.5 CALM 0 0 1015.9 - 0.0 - - - - - - -
03/01:30am 16.7 CALM 0 0 1016.1 - 0.0 - - - - - - -
03/01:00am 17.1 CALM 0 0 1016.2 - 0.0 - - - - - - -
03/12:30am 17.2 CALM 0 0 1016.5 - 0.0 - - - - - - -
03/12:00am 17.7 CALM 0 0 1016.6 - 0.0 - - - - - - -
 
Date/Time
CST
Temp

°C
Wind Pressure Rain
since 9am
mm
Weather Cloud Vis
km
Sea
Height
m
Swell
Dir
 
Speed
knots
Gust
knots
hPa Trend Height
m
Period
s
Dir
02/11:30pm 18.8 CALM 0 0 1016.5 - 0.0 - - - - - - -
02/11:00pm 18.7 CALM 0 0 1016.9 - 0.0 - - - - - - -
02/10:30pm 19.7 CALM 0 0 1017.0 - 0.0 - - - - - - -
02/10:00pm 20.0 CALM 0 0 1016.8 - 0.0 - - - - - - -
02/09:30pm 21.0 E 3 4 1017.0 - 0.0 - - - - - - -
02/09:00pm 21.9 E 3 4 1016.8 - 0.0 - - - - - - -
02/08:30pm 23.1 E 3 4 1016.5 - 0.0 - - - - - - -
02/08:00pm 23.5 ESE 5 6 1016.2 - 0.0 - - - - - - -
02/07:30pm 24.0 ESE 5 7 1016.0 - 0.0 - - - - - - -
02/07:00pm 24.6 ESE 5 7 1015.6 - 0.0 - - - - - - -
02/06:30pm 25.5 ESE 4 6 1015.3 - 0.0 - - - - - - -
02/06:00pm 26.6 ESE 6 10 1015.1 - 0.0 - - - - - - -
02/05:30pm 27.4 ESE 8 13 1015.0 - 0.0 - - - - - - -
02/05:00pm 27.8 ESE 8 14 1014.9 - 0.0 - - - - - - -
02/04:30pm 28.7 ESE 7 16 1014.7 - 0.0 - - - - - - -
02/04:00pm 29.3 E 8 13 1014.5 - 0.0 - - - - - - -
02/03:30pm 28.8 ESE 9 13 1014.5 - 0.0 - - - - - - -
02/03:00pm 28.7 ESE 9 16 1014.6 - 0.0 - Mostly clear - - - - -
02/02:30pm 29.1 ESE 10 15 1014.9 - 0.0 - Partly cloudy - - - - -
02/02:00pm 29.1 ESE 10 16 1015.2 - 0.0 - Partly cloudy - - - - -
02/01:30pm 30.1 ESE 9 14 1015.4 - 0.0 - Partly cloudy - - - - -
02/01:00pm 29.9 E 12 17 1015.9 - 0.0 - - - - - - -
02/12:30pm 29.5 ESE 11 18 1016.5 - 0.0 - Partly cloudy - - - - -
02/12:00pm 29.9 ENE 12 17 1016.8 - 0.0 - - - - - - -
02/11:30am 29.5 E 10 17 1017.2 - 0.0 - - - - - - -
02/11:00am 28.6 E 10 18 1017.4 - 0.0 - - - - - - -
02/10:30am 28.5 ESE 9 16 1017.6 - 0.0 - - - - - - -
02/10:00am 28.2 ESE 9 12 1017.7 - 0.0 - - - - - - -
02/09:30am 27.1 ESE 7 11 1017.7 - 0.0 - - - - - - -
02/09:00am 25.7 ESE 6 9 1017.8 - 0.0 - - - - - - -
02/08:30am 23.5 ESE 3 4 1017.6 - 0.0 - - - - - - -
02/08:00am 21.4 CALM 0 0 1017.4 - 0.0 - - - - - - -
02/07:30am 18.2 CALM 0 0 1017.0 - 0.0 - - - - - - -
02/07:00am 16.6 CALM 0 0 1016.7 - 0.0 - - - - - - -
02/06:30am 16.5 CALM 0 0 1016.3 - 0.0 - - - - - - -
02/06:00am 16.5 CALM 0 0 1016.0 - 0.0 - - - - - - -
02/05:30am 16.8 E 3 3 1015.8 - 0.0 - - - - - - -
02/05:00am 16.4 CALM 0 0 1015.6 - 0.0 - - - - - - -
02/04:30am 16.9 CALM 0 0 1015.5 - 0.0 - - - - - - -
02/04:00am 16.8 E 1 3 1015.4 - 0.0 - - - - - - -
02/03:30am 16.8 E 2 3 1015.6 - 0.0 - - - - - - -
02/03:00am 16.5 SE 2 3 1015.7 - 0.0 - - - - - - -
02/02:30am 16.2 SSE 3 4 1015.8 - 0.0 - - - - - - -
02/02:00am 16.6 S 2 4 1016.0 - 0.0 - - - - - - -
02/01:30am 16.9 CALM 0 0 1016.1 - 0.0 - - - - - - -
02/01:00am 17.6 CALM 0 0 1016.5 - 0.0 - - - - - - -
02/12:30am 17.9 CALM 0 0 1016.6 - 0.0 - - - - - - -
02/12:00am 18.4 E 4 4 1016.3 - 0.0 - - - - - - -
 
Date/Time
CST
Temp

°C
Wind Pressure Rain
since 9am
mm
Weather Cloud Vis
km
Sea
Height
m
Swell
Dir
 
Speed
knots
Gust
knots
hPa Trend Height
m
Period
s
Dir
01/11:30pm 19.0 E 3 4 1016.3 - 0.0 - - - - - - -
01/11:00pm 19.5 E 1 3 1016.4 - 0.0 - - - - - - -
01/10:30pm 20.0 ESE 3 4 1016.6 - 0.0 - - 10 - - - -
01/10:00pm 20.4 SE 3 4 1016.5 - 0.0 - - 10 - - - -
01/09:30pm 21.3 ESE 4 5 1016.4 - 0.0 - - 10 - - - -
01/09:00pm 21.8 ESE 3 5 1016.1 - 0.0 - - 10 - - - -
01/08:30pm 21.9 SE 3 5 1015.7 - 0.0 - - 10 - - - -
01/08:00pm 21.9 ESE 3 4 1015.4 - 0.0 - - 10 - - - -
01/07:30pm 23.1 E 3 5 1015.1 - 0.0 - - 10 - - - -
01/07:00pm 24.1 ESE 5 6 1014.6 - 0.0 - - 10 - - - -
01/06:30pm 25.1 ESE 5 8 1014.3 - 0.0 - - 10 - - - -
01/06:00pm 26.2 ESE 6 10 1014.1 - 0.0 - - 10 - - - -
01/05:30pm 27.2 ESE 7 10 1013.9 - 0.0 - - - - - - -
01/05:00pm 28.0 ESE 7 11 1013.8 - 0.0 - Partly cloudy - - - - -
01/04:30pm 28.5 E 9 13 1013.7 - 0.0 - - - - - - -
01/04:00pm 29.5 E 8 15 1013.4 - 0.0 - - - - - - -
01/03:30pm 28.4 SE 5 9 1013.6 - 0.0 - Partly cloudy - - - - -
01/03:00pm 29.3 E 7 12 1013.8 - 0.0 - Mostly clear - - - - -
01/02:30pm 29.4 E 8 15 1014.0 - 0.0 - Partly cloudy - - - - -
01/02:00pm 29.3 ENE 9 14 1014.6 - 0.0 - - - - - - -
01/01:30pm 29.2 E 10 15 1015.0 - 0.0 - Partly cloudy - - - - -

Other Formats:

Comma delimited format used in spreadsheet applications
http://www.bom.gov.au/fwo/IDD60701/IDD60701.94153.axf

JavaScript Object Notation format (JSON) in row-major order
http://www.bom.gov.au/fwo/IDD60701/IDD60701.94153.json